Time;durP1;ratioP1;P1;durP2;ratioP2;P2;SDS_P1;SDS_P2;PMS_P1;PMS_P2;Temp;Humidity;BMP_temperature;BMP_pressure;BME280_temperature;BME280_humidity;BME280_pressure;Samples;Min_cycle;Max_cycle;Signal;HPM_P1;HPM_P2
2023/06/15 00:00:35;;;;;;;1.67;1.55;;;24.80;45.00;;;;;;4983825;28;88419;-84
2023/06/15 00:03:01;;;;;;;1.88;1.70;;;24.80;45.00;;;;;;4985219;28;87833;-83
2023/06/15 00:05:26;;;;;;;2.38;2.00;;;24.80;45.00;;;;;;4986898;28;87321;-83
2023/06/15 00:07:52;;;;;;;2.47;1.73;;;24.80;45.20;;;;;;4984458;28;87682;-83
2023/06/15 00:10:18;;;;;;;2.17;1.98;;;24.80;45.20;;;;;;4982869;28;87709;-84
2023/06/15 00:12:44;;;;;;;2.15;1.55;;;24.80;45.20;;;;;;4984918;28;87279;-84
2023/06/15 00:15:10;;;;;;;1.88;1.67;;;24.80;45.40;;;;;;4981409;28;88572;-83
2023/06/15 00:17:37;;;;;;;2.15;1.58;;;24.80;45.30;;;;;;4983981;28;88713;-83
2023/06/15 00:20:08;;;;;;;2.13;1.90;;;24.80;45.30;;;;;;4986915;28;88143;-83
2023/06/15 00:22:34;;;;;;;2.10;1.77;;;24.80;45.40;;;;;;4983639;28;92008;-84
2023/06/15 00:25:00;;;;;;;1.73;1.63;;;24.80;45.40;;;;;;4975745;28;87069;-83
2023/06/15 00:27:25;;;;;;;1.83;1.67;;;24.80;45.40;;;;;;4984335;28;87700;-83
2023/06/15 00:29:51;;;;;;;1.95;1.75;;;24.70;45.60;;;;;;4981702;28;87909;-83
2023/06/15 00:32:17;;;;;;;2.28;1.67;;;24.80;45.60;;;;;;4986134;28;87346;-83
2023/06/15 00:34:42;;;;;;;1.95;1.58;;;24.80;45.60;;;;;;4984091;28;88166;-84
2023/06/15 00:37:08;;;;;;;1.65;1.55;;;24.80;45.70;;;;;;4983592;28;88575;-84
2023/06/15 00:39:33;;;;;;;1.80;1.48;;;24.70;45.60;;;;;;4981519;28;89571;-84
2023/06/15 00:41:59;;;;;;;2.20;1.77;;;24.70;45.90;;;;;;4983702;28;87375;-84
2023/06/15 00:44:25;;;;;;;2.17;1.73;;;24.80;45.90;;;;;;4982767;28;87971;-84
2023/06/15 00:46:51;;;;;;;1.80;1.50;;;24.80;45.80;;;;;;4984637;28;87547;-83
2023/06/15 00:49:16;;;;;;;2.28;1.77;;;24.70;45.70;;;;;;4983794;28;88387;-83
2023/06/15 00:51:42;;;;;;;1.90;1.50;;;24.70;45.90;;;;;;4984859;28;87994;-83
2023/06/15 00:54:12;;;;;;;2.22;1.70;;;24.70;45.80;;;;;;4981078;28;88084;-83
2023/06/15 00:56:38;;;;;;;1.90;1.52;;;24.70;45.90;;;;;;4990548;28;88290;-85
2023/06/15 00:59:04;;;;;;;2.50;1.88;;;24.70;45.80;;;;;;4982136;28;87625;-83
2023/06/15 01:01:30;;;;;;;2.20;1.63;;;24.70;45.80;;;;;;4982654;28;93252;-84
2023/06/15 01:03:57;;;;;;;2.00;1.48;;;24.70;46.00;;;;;;4982807;28;88303;-84
2023/06/15 01:06:24;;;;;;;2.17;1.90;;;24.70;46.00;;;;;;4982307;28;87395;-84
2023/06/15 01:08:52;;;;;;;1.90;1.63;;;24.70;46.00;;;;;;4981134;28;89643;-85
2023/06/15 01:11:18;;;;;;;2.17;1.52;;;24.70;46.00;;;;;;4983087;28;87050;-84
2023/06/15 01:13:45;;;;;;;2.17;1.65;;;24.70;46.10;;;;;;4983485;28;88146;-83
2023/06/15 01:16:21;;;;;;;2.13;1.67;;;24.70;46.20;;;;;;4982133;28;88230;-83
2023/06/15 01:18:50;;;;;;;2.80;1.75;;;24.70;46.10;;;;;;4981592;28;87528;-83
2023/06/15 01:21:16;;;;;;;1.88;1.77;;;24.70;46.10;;;;;;4982723;28;87822;-83
2023/06/15 01:23:55;;;;;;;1.70;1.60;;;24.70;46.20;;;;;;4984084;28;87944;-84
2023/06/15 01:26:24;;;;;;;1.83;1.63;;;24.70;46.30;;;;;;4979763;28;88285;-84
2023/06/15 01:28:50;;;;;;;2.03;1.70;;;24.70;46.20;;;;;;4980477;28;89945;-84
2023/06/15 01:31:17;;;;;;;2.17;1.50;;;24.70;46.30;;;;;;4984113;28;88176;-85
2023/06/15 01:33:47;;;;;;;1.70;1.60;;;24.70;46.40;;;;;;4981908;28;88047;-84
2023/06/15 01:36:13;;;;;;;2.20;1.83;;;24.70;46.50;;;;;;4982640;28;87231;-84
2023/06/15 01:38:39;;;;;;;1.58;1.48;;;24.70;46.50;;;;;;4981894;28;89371;-84
2023/06/15 01:41:07;;;;;;;1.95;1.60;;;24.70;46.50;;;;;;4986178;28;89324;-84
2023/06/15 01:43:35;;;;;;;2.13;1.73;;;24.70;46.50;;;;;;4982138;28;88151;-84
2023/06/15 01:46:02;;;;;;;1.70;1.60;;;24.70;46.50;;;;;;4982192;28;87151;-84
2023/06/15 01:48:28;;;;;;;2.15;1.90;;;24.70;46.40;;;;;;4981498;28;87692;-84
2023/06/15 01:50:55;;;;;;;1.73;1.63;;;24.70;46.50;;;;;;4985937;28;87672;-84
2023/06/15 01:53:20;;;;;;;3.00;1.50;;;24.70;46.50;;;;;;4982173;28;88434;-83
2023/06/15 01:55:46;;;;;;;1.50;1.40;;;24.60;46.60;;;;;;4981298;28;88659;-83
2023/06/15 01:58:15;;;;;;;2.75;1.88;;;24.70;46.50;;;;;;4982858;28;88231;-83
2023/06/15 02:00:45;;;;;;;1.88;1.75;;;24.70;46.50;;;;;;4981575;28;88342;-83
2023/06/15 02:03:11;;;;;;;3.13;2.08;;;24.60;46.50;;;;;;4982020;28;87394;-84
2023/06/15 02:05:39;;;;;;;1.50;1.38;;;24.60;46.60;;;;;;4975305;28;88423;-84
2023/06/15 02:08:06;;;;;;;2.42;1.42;;;24.60;46.60;;;;;;4962301;28;88028;-84
2023/06/15 02:10:32;;;;;;;2.10;1.90;;;24.60;46.80;;;;;;4981801;28;87589;-85
2023/06/15 02:12:57;;;;;;;2.17;1.60;;;24.60;46.80;;;;;;4983678;28;87553;-84
2023/06/15 02:15:23;;;;;;;2.20;1.90;;;24.60;46.70;;;;;;4982843;28;87928;-84
2023/06/15 02:17:48;;;;;;;1.75;1.65;;;24.60;46.60;;;;;;4982879;28;88382;-84
2023/06/15 02:20:14;;;;;;;2.22;1.45;;;24.60;46.80;;;;;;4981027;28;92204;-83
2023/06/15 02:22:40;;;;;;;2.00;1.63;;;24.60;46.70;;;;;;4982640;28;88099;-84
2023/06/15 02:25:07;;;;;;;2.45;1.70;;;24.60;46.80;;;;;;4981960;28;88394;-84
2023/06/15 02:27:34;;;;;;;1.98;1.80;;;24.60;46.90;;;;;;4982482;28;87961;-83
2023/06/15 02:29:59;;;;;;;1.80;1.60;;;24.60;46.90;;;;;;4982551;28;87867;-84
2023/06/15 02:32:36;;;;;;;1.83;1.58;;;24.60;47.00;;;;;;4980684;28;87806;-84
2023/06/15 02:35:04;;;;;;;2.58;1.67;;;24.60;46.80;;;;;;4982544;28;86593;-84
2023/06/15 02:37:30;;;;;;;1.65;1.40;;;24.60;47.00;;;;;;4980946;28;92062;-83
2023/06/15 02:39:56;;;;;;;2.28;1.70;;;24.60;46.90;;;;;;4979903;28;87482;-84
2023/06/15 02:42:21;;;;;;;1.80;1.70;;;24.60;46.90;;;;;;4980215;28;88121;-84
2023/06/15 02:44:47;;;;;;;2.00;1.60;;;24.60;47.10;;;;;;4980769;28;88165;-84
2023/06/15 02:47:13;;;;;;;2.83;1.80;;;24.60;47.10;;;;;;4981512;28;88780;-84
2023/06/15 02:49:38;;;;;;;1.60;1.50;;;24.60;46.90;;;;;;4983332;28;88265;-83
2023/06/15 02:52:04;;;;;;;1.90;1.73;;;24.60;47.10;;;;;;4982124;28;87419;-84
2023/06/15 02:54:30;;;;;;;2.00;1.80;;;24.60;47.10;;;;;;4981253;28;87895;-84
2023/06/15 02:56:56;;;;;;;1.52;1.42;;;24.60;46.90;;;;;;4980287;28;88324;-84
2023/06/15 02:59:25;;;;;;;2.28;1.80;;;24.60;47.10;;;;;;4983593;28;89491;-84
2023/06/15 03:01:52;;;;;;;1.60;1.50;;;24.60;47.10;;;;;;4985046;28;88380;-84
2023/06/15 03:04:21;;;;;;;2.17;1.80;;;24.60;47.10;;;;;;4983257;28;86925;-83
2023/06/15 03:06:50;;;;;;;1.60;1.48;;;24.60;47.20;;;;;;4982923;28;88563;-84
2023/06/15 03:09:17;;;;;;;2.22;2.03;;;24.60;47.20;;;;;;4983977;28;88102;-84
2023/06/15 03:11:44;;;;;;;2.00;1.80;;;24.50;47.30;;;;;;4983945;28;87363;-84
2023/06/15 03:14:12;;;;;;;4.97;1.38;;;24.50;47.00;;;;;;4983905;28;87943;-84
2023/06/15 03:16:46;;;;;;;2.10;1.90;;;24.60;47.30;;;;;;4983775;28;87808;-84
2023/06/15 03:19:15;;;;;;;1.95;1.75;;;24.60;47.20;;;;;;4984401;28;87868;-83
2023/06/15 03:21:41;;;;;;;1.80;1.63;;;24.60;47.30;;;;;;4982835;28;87678;-84
2023/06/15 03:24:08;;;;;;;1.55;1.45;;;24.50;47.30;;;;;;4984661;28;86829;-83
2023/06/15 03:26:36;;;;;;;1.58;1.48;;;24.50;47.20;;;;;;4982983;28;87590;-83
2023/06/15 03:29:02;;;;;;;1.67;1.52;;;24.50;47.30;;;;;;4986187;28;87740;-84
2023/06/15 03:31:28;;;;;;;1.90;1.52;;;24.50;47.30;;;;;;4981990;28;87927;-83
2023/06/15 03:33:55;;;;;;;1.50;1.40;;;24.50;47.40;;;;;;4985847;28;88477;-83
2023/06/15 03:36:24;;;;;;;1.55;1.35;;;24.50;47.90;;;;;;4986776;28;87649;-84
2023/06/15 03:38:50;;;;;;;1.95;1.52;;;24.50;47.30;;;;;;4984400;28;88622;-84
2023/06/15 03:41:15;;;;;;;2.38;1.60;;;24.50;47.40;;;;;;4983113;28;87895;-83
2023/06/15 03:43:41;;;;;;;1.80;1.65;;;24.50;47.30;;;;;;4983575;28;87903;-83
2023/06/15 03:46:07;;;;;;;3.53;2.33;;;24.50;47.30;;;;;;4985341;28;87549;-84
2023/06/15 03:48:33;;;;;;;1.75;1.60;;;24.50;47.20;;;;;;4983069;28;86537;-84
2023/06/15 03:50:58;;;;;;;1.50;1.40;;;24.50;47.40;;;;;;4984013;28;88199;-83
2023/06/15 03:53:24;;;;;;;1.70;1.58;;;24.50;47.40;;;;;;4997214;28;89305;-84
2023/06/15 03:55:51;;;;;;;1.42;1.33;;;24.50;47.40;;;;;;4983201;28;89116;-83
2023/06/15 03:58:19;;;;;;;1.75;1.35;;;24.50;47.90;;;;;;4983862;28;88268;-83
2023/06/15 04:00:45;;;;;;;1.98;1.45;;;24.50;47.40;;;;;;4983097;28;87929;-83
2023/06/15 04:03:12;;;;;;;1.77;1.67;;;24.50;47.50;;;;;;4982167;28;87026;-84
2023/06/15 04:05:38;;;;;;;2.00;1.80;;;24.50;47.40;;;;;;4984854;28;88272;-83
2023/06/15 04:08:05;;;;;;;1.67;1.58;;;24.50;47.50;;;;;;4983218;28;89843;-85
2023/06/15 04:10:30;;;;;;;1.50;1.40;;;24.50;47.30;;;;;;4982207;28;87896;-83
2023/06/15 04:12:56;;;;;;;3.08;1.63;;;24.50;47.40;;;;;;4982429;28;87237;-83
2023/06/15 04:15:22;;;;;;;1.70;1.60;;;24.50;47.40;;;;;;4982998;28;87858;-83
2023/06/15 04:17:50;;;;;;;1.95;1.35;;;24.50;47.50;;;;;;4983788;28;87699;-84
2023/06/15 04:20:16;;;;;;;1.80;1.60;;;24.50;48.10;;;;;;4982448;28;88649;-83
2023/06/15 04:22:41;;;;;;;2.03;1.60;;;24.50;47.60;;;;;;4982868;28;87609;-84
2023/06/15 04:25:08;;;;;;;1.70;1.60;;;24.50;47.60;;;;;;4983358;28;89049;-83
2023/06/15 04:27:34;;;;;;;1.60;1.50;;;24.50;47.60;;;;;;4983127;28;88103;-85
2023/06/15 04:30:03;;;;;;;1.48;1.30;;;24.50;47.60;;;;;;4982297;28;88474;-83
2023/06/15 04:32:30;;;;;;;2.08;1.52;;;24.50;47.60;;;;;;4982969;28;88358;-84
2023/06/15 04:35:03;;;;;;;1.80;1.70;;;24.50;47.60;;;;;;4984909;28;87590;-84
2023/06/15 04:37:29;;;;;;;1.67;1.45;;;24.50;47.60;;;;;;4981890;28;88806;-84
2023/06/15 04:39:59;;;;;;;1.58;1.40;;;24.60;47.50;;;;;;4982361;28;86954;-83
2023/06/15 04:42:26;;;;;;;1.50;1.40;;;24.50;47.60;;;;;;4982276;28;87875;-83
2023/06/15 04:44:52;;;;;;;1.80;1.70;;;24.60;47.70;;;;;;4982524;28;89355;-83
2023/06/15 04:47:18;;;;;;;1.73;1.63;;;24.50;47.70;;;;;;4982607;28;89035;-84
2023/06/15 04:49:44;;;;;;;1.60;1.50;;;24.60;47.70;;;;;;4982718;28;87976;-84
2023/06/15 04:52:10;;;;;;;2.00;1.60;;;24.60;47.60;;;;;;4985668;28;87576;-84
2023/06/15 04:54:36;;;;;;;1.80;1.50;;;24.60;47.80;;;;;;4981529;28;88199;-84
2023/06/15 04:57:01;;;;;;;2.15;1.70;;;24.60;47.70;;;;;;4981382;28;87869;-84
2023/06/15 04:59:27;;;;;;;1.55;1.45;;;24.70;47.80;;;;;;4982548;28;88261;-84
2023/06/15 05:01:53;;;;;;;1.55;1.38;;;24.60;47.70;;;;;;4984904;28;86923;-83
2023/06/15 05:04:21;;;;;;;1.65;1.55;;;24.70;47.60;;;;;;4982439;28;89021;-85
2023/06/15 05:06:46;;;;;;;4.55;1.55;;;24.70;47.70;;;;;;4981857;28;88450;-84
2023/06/15 05:09:12;;;;;;;3.50;2.28;;;24.80;47.30;;;;;;4980135;28;88684;-84
2023/06/15 05:11:38;;;;;;;4.07;2.35;;;24.70;46.00;;;;;;4982211;28;87728;-85
2023/06/15 05:14:04;;;;;;;7.70;2.90;;;24.60;45.00;;;;;;4982778;28;91145;-84
2023/06/15 05:16:30;;;;;;;6.90;2.78;;;24.50;44.30;;;;;;4982665;28;94076;-85
2023/06/15 05:18:56;;;;;;;10.20;3.58;;;24.40;44.00;;;;;;4981463;28;87250;-86
2023/06/15 05:21:22;;;;;;;6.22;3.47;;;24.30;44.50;;;;;;4981906;28;87050;-85
2023/06/15 05:23:48;;;;;;;6.78;3.35;;;24.30;43.70;;;;;;4981111;28;92525;-84
2023/06/15 05:26:15;;;;;;;5.30;3.50;;;24.30;43.90;;;;;;4979670;28;89858;-86
2023/06/15 05:28:40;;;;;;;7.72;3.28;;;24.30;43.80;;;;;;4983894;28;86999;-84
2023/06/15 05:31:08;;;;;;;6.93;3.90;;;24.40;44.10;;;;;;4982907;28;87589;-83
2023/06/15 05:33:34;;;;;;;7.50;4.00;;;24.30;44.20;;;;;;4982324;28;89153;-84
2023/06/15 05:36:00;;;;;;;9.15;4.30;;;24.30;43.80;;;;;;4983528;28;87934;-84
2023/06/15 05:38:26;;;;;;;5.80;3.92;;;24.30;43.80;;;;;;4982783;28;87631;-83
2023/06/15 05:40:51;;;;;;;9.07;4.10;;;24.30;44.00;;;;;;4985046;28;87663;-84
2023/06/15 05:43:17;;;;;;;9.40;3.97;;;24.30;44.30;;;;;;4985593;28;88453;-84
2023/06/15 05:45:43;;;;;;;13.48;4.13;;;24.30;43.80;;;;;;4981910;28;87531;-84
2023/06/15 05:48:08;;;;;;;6.07;3.90;;;24.30;44.00;;;;;;4979285;28;87695;-85
2023/06/15 05:50:35;;;;;;;7.20;3.47;;;24.30;43.90;;;;;;4980817;28;87043;-84
2023/06/15 05:53:01;;;;;;;5.60;3.78;;;24.30;44.20;;;;;;4980390;28;88651;-84
2023/06/15 05:55:28;;;;;;;6.00;3.92;;;24.20;44.10;;;;;;4981364;28;88508;-84
2023/06/15 05:57:54;;;;;;;10.15;4.20;;;24.30;44.10;;;;;;4982604;28;89275;-84
2023/06/15 06:00:22;;;;;;;7.18;3.67;;;24.20;44.00;;;;;;4981310;28;87748;-84
2023/06/15 06:02:48;;;;;;;16.08;3.97;;;24.20;44.00;;;;;;4980192;28;88828;-84
2023/06/15 06:05:13;;;;;;;7.93;3.90;;;24.30;44.20;;;;;;4984649;28;87804;-86
2023/06/15 06:07:39;;;;;;;8.15;3.90;;;24.30;44.30;;;;;;4986144;28;87408;-87
2023/06/15 06:10:06;;;;;;;8.57;4.40;;;24.30;44.40;;;;;;4981948;28;87761;-85
2023/06/15 06:12:31;;;;;;;13.13;3.95;;;24.30;44.80;;;;;;4981718;28;88132;-83
2023/06/15 06:14:57;;;;;;;50.00;12.55;;;24.30;44.90;;;;;;4985201;28;87220;-85
2023/06/15 06:17:22;;;;;;;75.47;16.40;;;24.30;45.20;;;;;;4985275;28;87887;-86
2023/06/15 06:19:51;;;;;;;61.75;13.02;;;24.30;45.40;;;;;;4985875;28;88081;-86
2023/06/15 06:22:17;;;;;;;43.28;10.15;;;24.40;45.60;;;;;;4983956;28;90225;-85
2023/06/15 06:24:42;;;;;;;32.80;7.80;;;24.40;45.50;;;;;;4981491;28;88190;-83
2023/06/15 06:27:08;;;;;;;26.70;5.97;;;24.50;45.50;;;;;;4982434;28;87992;-84
2023/06/15 06:29:34;;;;;;;19.45;5.50;;;24.50;45.20;;;;;;4979921;28;87746;-84
2023/06/15 06:31:59;;;;;;;18.85;5.78;;;24.40;45.10;;;;;;4980654;28;88317;-85
2023/06/15 06:34:25;;;;;;;17.90;6.50;;;24.40;45.40;;;;;;4983490;28;88132;-82
2023/06/15 06:36:51;;;;;;;13.63;5.43;;;24.30;45.40;;;;;;4982034;28;87863;-85
2023/06/15 06:39:16;;;;;;;14.45;4.78;;;24.40;45.70;;;;;;4984965;28;87000;-82
2023/06/15 06:41:42;;;;;;;10.88;5.30;;;24.40;45.50;;;;;;4983796;28;88116;-84
2023/06/15 06:44:08;;;;;;;23.67;6.20;;;24.40;45.60;;;;;;4984668;28;88739;-82
2023/06/15 06:46:33;;;;;;;13.30;4.55;;;24.40;45.70;;;;;;4984237;28;88752;-84
2023/06/15 06:48:59;;;;;;;14.75;4.72;;;24.40;45.50;;;;;;4984778;28;88496;-85
2023/06/15 06:51:25;;;;;;;15.60;5.25;;;24.40;45.70;;;;;;4984602;28;89054;-84
2023/06/15 06:53:50;;;;;;;11.10;4.85;;;24.30;45.30;;;;;;4983977;28;88356;-84
2023/06/15 06:56:16;;;;;;;14.07;4.57;;;24.40;45.40;;;;;;4983369;28;87213;-81
2023/06/15 06:58:41;;;;;;;12.63;4.32;;;24.40;45.30;;;;;;4983464;28;87688;-85
2023/06/15 07:01:07;;;;;;;13.77;4.53;;;24.40;45.40;;;;;;4984492;28;88888;-85
2023/06/15 07:03:33;;;;;;;10.40;4.40;;;24.40;45.30;;;;;;4982608;28;89332;-82
2023/06/15 07:05:59;;;;;;;15.27;3.60;;;24.40;45.30;;;;;;4983702;28;87064;-84
2023/06/15 07:08:25;;;;;;;11.38;3.70;;;24.40;45.30;;;;;;4984184;28;87763;-83
2023/06/15 07:10:50;;;;;;;8.57;3.47;;;24.40;45.20;;;;;;4987077;28;89002;-85
2023/06/15 07:13:16;;;;;;;9.45;3.83;;;24.40;45.30;;;;;;4985842;28;89308;-83
2023/06/15 07:15:41;;;;;;;9.75;3.17;;;24.40;45.20;;;;;;4985017;28;87076;-85
2023/06/15 07:18:07;;;;;;;8.13;3.85;;;24.40;45.30;;;;;;4982698;28;87708;-82
2023/06/15 07:20:33;;;;;;;9.20;3.40;;;24.40;45.30;;;;;;4984199;28;88371;-84
2023/06/15 07:22:58;;;;;;;11.05;3.65;;;24.50;45.50;;;;;;4984534;28;88481;-84
2023/06/15 07:25:24;;;;;;;7.15;3.38;;;24.50;45.50;;;;;;4984525;28;88577;-85
2023/06/15 07:27:49;;;;;;;6.63;2.80;;;24.50;45.20;;;;;;4983386;28;87385;-84
2023/06/15 07:30:15;;;;;;;11.65;3.75;;;24.50;45.10;;;;;;4983505;28;88160;-85
2023/06/15 07:32:41;;;;;;;7.70;3.03;;;24.50;45.30;;;;;;4982097;28;88304;-84
2023/06/15 07:35:07;;;;;;;8.20;3.55;;;24.50;45.00;;;;;;4983411;28;89468;-84
2023/06/15 07:37:32;;;;;;;6.47;3.00;;;24.50;45.00;;;;;;4983696;28;88061;-82
2023/06/15 07:39:58;;;;;;;7.13;2.97;;;24.50;44.80;;;;;;4983473;28;88201;-81
2023/06/15 07:42:24;;;;;;;7.55;3.65;;;24.50;44.90;;;;;;4980747;28;88537;-84
2023/06/15 07:44:50;;;;;;;7.13;3.42;;;24.50;45.20;;;;;;4984122;28;87120;-81
2023/06/15 07:47:15;;;;;;;7.18;2.60;;;24.50;45.10;;;;;;4985681;28;87988;-84
2023/06/15 07:49:41;;;;;;;4.55;3.00;;;24.50;45.00;;;;;;4985078;28;88369;-85
2023/06/15 07:52:07;;;;;;;7.22;3.42;;;24.50;44.90;;;;;;4982974;28;87227;-84
2023/06/15 07:54:32;;;;;;;8.38;3.22;;;24.50;45.00;;;;;;4980066;28;87629;-82
2023/06/15 07:56:58;;;;;;;7.75;3.08;;;24.60;45.10;;;;;;4981727;28;87569;-83
2023/06/15 07:59:24;;;;;;;4.57;2.88;;;24.60;45.10;;;;;;4981773;28;89194;-82
2023/06/15 08:01:49;;;;;;;5.03;2.88;;;24.60;45.00;;;;;;4982048;28;90091;-84
2023/06/15 08:04:15;;;;;;;6.97;3.50;;;24.60;45.20;;;;;;4985060;28;88305;-85
2023/06/15 08:06:41;;;;;;;6.82;3.20;;;24.60;45.20;;;;;;4983824;28;88275;-85
2023/06/15 08:09:07;;;;;;;8.63;3.22;;;24.60;45.20;;;;;;4983782;28;87904;-83
2023/06/15 08:11:32;;;;;;;8.98;3.70;;;24.70;45.20;;;;;;4983369;28;87558;-82
2023/06/15 08:13:58;;;;;;;6.80;3.42;;;24.60;45.20;;;;;;4983983;28;88207;-82
2023/06/15 08:16:23;;;;;;;9.50;3.00;;;24.70;45.10;;;;;;4983623;28;87278;-84
2023/06/15 08:18:49;;;;;;;5.65;3.05;;;24.70;44.80;;;;;;4982273;28;87907;-83
2023/06/15 08:21:17;;;;;;;8.15;3.38;;;24.60;44.80;;;;;;4982762;28;87649;-85
2023/06/15 08:23:42;;;;;;;5.25;2.72;;;24.60;44.70;;;;;;4981383;28;89012;-82
2023/06/15 08:26:08;;;;;;;5.97;3.13;;;24.70;44.80;;;;;;4983182;28;86934;-85
2023/06/15 08:28:33;;;;;;;6.97;2.92;;;24.70;45.00;;;;;;4985353;28;87568;-85
2023/06/15 08:30:59;;;;;;;4.15;2.95;;;24.70;45.40;;;;;;4983617;28;87998;-83
2023/06/15 08:33:25;;;;;;;7.38;2.63;;;24.80;45.30;;;;;;4983649;28;88245;-82
2023/06/15 08:35:50;;;;;;;7.55;3.00;;;24.80;45.20;;;;;;4987908;28;86892;-82
2023/06/15 08:38:16;;;;;;;5.13;2.72;;;24.80;45.40;;;;;;4982951;28;88102;-82
2023/06/15 08:40:42;;;;;;;6.32;3.03;;;24.70;45.20;;;;;;4984419;28;87291;-82
2023/06/15 08:43:09;;;;;;;5.10;2.63;;;24.70;45.00;;;;;;4982727;28;88679;-82
2023/06/15 08:45:43;;;;;;;6.70;2.75;;;24.70;44.90;;;;;;4982781;28;87234;-85
2023/06/15 08:48:15;;;;;;;4.68;2.63;;;24.70;44.50;;;;;;4982066;28;90168;-83
2023/06/15 08:50:41;;;;;;;8.13;3.08;;;24.70;44.60;;;;;;4985268;28;88406;-84
2023/06/15 08:53:07;;;;;;;6.50;2.53;;;24.80;45.10;;;;;;4983301;28;88672;-83
2023/06/15 08:55:35;;;;;;;7.90;2.88;;;24.70;45.30;;;;;;4983574;28;87979;-83
2023/06/15 08:58:01;;;;;;;7.28;2.60;;;24.70;44.80;;;;;;4970726;28;88566;-84
2023/06/15 09:00:26;;;;;;;7.00;2.78;;;24.70;45.40;;;;;;4985729;28;89140;-84
2023/06/15 09:02:56;;;;;;;8.30;2.90;;;24.70;45.30;;;;;;4983682;28;88057;-84
2023/06/15 09:05:22;;;;;;;8.75;2.92;;;24.70;45.00;;;;;;4986493;28;87628;-86
2023/06/15 09:07:48;;;;;;;5.32;2.60;;;24.70;44.80;;;;;;4982289;28;87910;-83
2023/06/15 09:10:15;;;;;;;3.92;2.40;;;24.70;44.80;;;;;;4985633;28;87823;-83
2023/06/15 09:12:46;;;;;;;3.58;2.33;;;24.70;44.70;;;;;;4984832;28;89846;-88
2023/06/15 09:15:17;;;;;;;3.55;2.20;;;24.70;44.80;;;;;;4984556;28;87980;-84
2023/06/15 09:17:43;;;;;;;4.28;2.58;;;24.70;44.80;;;;;;4985040;28;87960;-84
2023/06/15 09:20:10;;;;;;;6.00;2.60;;;24.70;44.80;;;;;;4985882;28;88287;-83
2023/06/15 09:22:43;;;;;;;4.93;2.80;;;24.70;44.90;;;;;;4985410;28;87395;-83
2023/06/15 09:25:12;;;;;;;6.32;2.30;;;24.70;45.00;;;;;;4985309;28;87334;-84
2023/06/15 09:27:38;;;;;;;3.80;2.75;;;24.70;45.00;;;;;;4983168;28;88207;-84
2023/06/15 09:30:07;;;;;;;5.95;2.63;;;24.70;45.00;;;;;;4985763;28;87262;-84
2023/06/15 09:32:32;;;;;;;6.90;2.60;;;24.70;45.10;;;;;;4986644;28;87704;-83
2023/06/15 09:34:59;;;;;;;5.18;2.78;;;24.70;44.80;;;;;;4985269;28;88101;-84
2023/06/15 09:37:28;;;;;;;4.68;2.90;;;24.70;45.00;;;;;;4986454;28;88537;-86
2023/06/15 09:39:54;;;;;;;5.37;3.00;;;24.80;45.10;;;;;;4986103;28;88939;-84
2023/06/15 09:42:27;;;;;;;8.02;3.28;;;24.80;45.10;;;;;;4984502;28;87172;-84
2023/06/15 09:44:56;;;;;;;9.52;3.42;;;24.70;45.00;;;;;;4986143;28;87985;-85
2023/06/15 09:47:29;;;;;;;6.45;3.10;;;24.70;45.10;;;;;;4985765;28;88380;-87
2023/06/15 09:49:54;;;;;;;9.05;3.15;;;24.80;44.90;;;;;;4985484;28;87708;-87
2023/06/15 09:52:20;;;;;;;5.18;2.95;;;24.80;44.60;;;;;;4983899;28;87817;-86
2023/06/15 09:54:47;;;;;;;5.95;2.95;;;24.80;44.70;;;;;;4984843;28;87199;-88
2023/06/15 09:57:18;;;;;;;8.82;3.45;;;24.70;44.60;;;;;;4987482;28;88081;-86
2023/06/15 09:59:44;;;;;;;10.80;2.92;;;24.80;45.00;;;;;;4984574;28;87754;-88
2023/06/15 10:02:11;;;;;;;6.38;3.13;;;24.80;45.20;;;;;;4990212;28;88365;-86
2023/06/15 10:04:40;;;;;;;6.35;3.22;;;24.80;45.60;;;;;;4981229;28;87520;-87
2023/06/15 10:07:10;;;;;;;7.82;3.40;;;24.70;45.60;;;;;;4983520;28;88126;-87
2023/06/15 10:09:44;;;;;;;5.40;3.20;;;24.70;45.90;;;;;;4986088;28;87589;-85
2023/06/15 10:12:18;;;;;;;7.18;2.83;;;24.70;46.10;;;;;;4989467;28;87869;-89
2023/06/15 10:15:07;;;;;;;8.65;3.10;;;24.80;46.20;;;;;;4985373;28;88495;-85
2023/06/15 10:17:34;;;;;;;10.00;3.53;;;24.80;46.30;;;;;;4989611;28;87755;-86
2023/06/15 10:20:22;;;;;;;5.72;2.95;;;24.80;46.10;;;;;;4984485;28;87275;-85
2023/06/15 10:23:05;;;;;;;6.13;3.05;;;24.80;46.30;;;;;;4987099;28;87628;-87
2023/06/15 10:25:31;;;;;;;7.43;3.47;;;24.80;46.30;;;;;;4988084;28;87250;-88
2023/06/15 10:28:02;;;;;;;8.88;3.45;;;24.90;46.10;;;;;;4984908;28;88596;-85
2023/06/15 10:30:54;;;;;;;10.57;3.17;;;25.00;45.70;;;;;;4987554;28;88905;-85
2023/06/15 10:33:59;;;;;;;7.85;3.22;;;24.90;45.60;;;;;;4984779;28;87458;-88
2023/06/15 10:36:29;;;;;;;6.50;3.53;;;24.90;45.70;;;;;;4972400;28;87578;-84
2023/06/15 10:39:10;;;;;;;8.75;3.63;;;25.00;45.70;;;;;;4984551;28;87499;-86
2023/06/15 10:41:36;;;;;;;8.80;3.33;;;25.10;46.00;;;;;;4984459;28;88186;-85
2023/06/15 10:44:03;;;;;;;12.05;4.10;;;25.00;45.90;;;;;;4984902;28;87403;-88
2023/06/15 10:46:36;;;;;;;13.82;4.10;;;25.00;45.70;;;;;;4985169;28;87278;-85
2023/06/15 10:49:04;;;;;;;13.45;3.85;;;25.00;46.10;;;;;;4987197;28;88221;-85
2023/06/15 10:51:34;;;;;;;10.87;3.43;;;25.00;46.30;;;;;;4986802;28;87783;-87
2023/06/15 10:54:03;;;;;;;7.13;3.10;;;25.00;46.30;;;;;;4985028;28;88811;-86
2023/06/15 10:56:28;;;;;;;9.60;3.25;;;25.00;46.60;;;;;;4986160;28;88200;-85
2023/06/15 10:58:55;;;;;;;9.82;2.72;;;25.00;46.80;;;;;;4985320;28;87515;-87
2023/06/15 11:01:22;;;;;;;11.43;3.35;;;24.90;46.90;;;;;;4975565;28;88345;-85
2023/06/15 11:03:48;;;;;;;6.72;2.88;;;24.90;47.00;;;;;;4986237;28;87319;-86
2023/06/15 11:06:14;;;;;;;9.38;3.15;;;24.90;47.10;;;;;;4987764;28;88122;-88
2023/06/15 11:08:50;;;;;;;8.25;3.55;;;24.80;46.90;;;;;;4987284;28;88919;-87
2023/06/15 11:11:34;;;;;;;9.23;3.08;;;24.80;47.10;;;;;;4984111;28;91366;-88
2023/06/15 11:14:00;;;;;;;7.63;3.10;;;24.90;46.90;;;;;;4985793;28;89015;-86
2023/06/15 11:16:36;;;;;;;14.98;3.80;;;24.90;46.80;;;;;;4984804;28;88135;-86
2023/06/15 11:19:11;;;;;;;5.90;2.97;;;25.00;46.90;;;;;;4983879;28;91514;-87
2023/06/15 11:21:41;;;;;;;7.82;3.35;;;25.00;47.00;;;;;;4984206;28;88874;-87
2023/06/15 11:24:13;;;;;;;6.03;3.15;;;25.10;46.90;;;;;;4984690;28;87403;-83
2023/06/15 11:26:43;;;;;;;10.65;3.65;;;25.00;46.90;;;;;;4983949;28;87757;-86
2023/06/15 11:29:09;;;;;;;;;;;24.90;46.90;;;;;;4984574;28;92208;-84
2023/06/15 11:31:35;;;;;;;7.43;2.88;;;24.90;47.00;;;;;;4985619;28;89243;-87
2023/06/15 11:34:01;;;;;;;6.90;2.50;;;24.90;47.10;;;;;;4983914;28;87503;-84
2023/06/15 11:36:27;;;;;;;6.97;3.30;;;24.90;47.30;;;;;;4988401;28;87403;-83
2023/06/15 11:38:53;;;;;;;7.22;2.80;;;24.80;47.30;;;;;;4986587;28;87986;-84
2023/06/15 11:41:20;;;;;;;4.88;2.88;;;24.90;47.40;;;;;;4985678;28;87290;-85
2023/06/15 11:43:49;;;;;;;4.47;2.50;;;24.90;47.40;;;;;;4983600;28;88390;-83
2023/06/15 11:46:16;;;;;;;;;;;24.90;47.60;;;;;;4985424;28;87810;-86
2023/06/15 11:48:43;;;;;;;5.28;2.92;;;24.90;47.40;;;;;;4983569;28;89530;-84
2023/06/15 11:51:10;;;;;;;7.70;2.95;;;24.90;47.40;;;;;;4984543;28;87226;-83
2023/06/15 11:53:38;;;;;;;8.10;3.13;;;24.90;47.60;;;;;;4987445;28;87886;-83
2023/06/15 11:56:12;;;;;;;6.15;2.80;;;24.90;47.30;;;;;;4981505;28;87789;-87
2023/06/15 11:58:39;;;;;;;6.25;2.58;;;24.90;47.30;;;;;;4983993;28;87756;-84
2023/06/15 12:01:06;;;;;;;4.13;2.65;;;24.90;47.40;;;;;;4984651;28;88385;-88
2023/06/15 12:03:32;;;;;;;7.18;2.75;;;24.90;47.40;;;;;;4982131;28;87243;-87
2023/06/15 12:05:58;;;;;;;5.75;2.75;;;25.00;47.50;;;;;;4986982;28;87524;-85
2023/06/15 12:08:26;;;;;;;7.13;2.72;;;25.00;47.30;;;;;;4984027;28;89311;-88
2023/06/15 12:10:52;;;;;;;4.60;3.38;;;25.00;47.30;;;;;;4984996;28;88505;-87
2023/06/15 12:13:18;;;;;;;10.70;3.60;;;25.00;47.20;;;;;;4983598;28;87615;-84
2023/06/15 12:15:47;;;;;;;6.22;2.97;;;25.00;47.30;;;;;;4983181;28;87012;-85
2023/06/15 12:18:13;;;;;;;6.15;2.63;;;25.10;47.20;;;;;;4981145;28;88852;-85
2023/06/15 12:20:39;;;;;;;6.35;2.90;;;25.00;47.00;;;;;;4983708;28;87318;-85
2023/06/15 12:23:05;;;;;;;7.10;3.15;;;25.00;47.20;;;;;;4983491;28;87515;-84
2023/06/15 12:25:42;;;;;;;7.80;3.28;;;25.00;47.10;;;;;;4981409;28;87579;-84
2023/06/15 12:28:15;;;;;;;7.75;2.97;;;25.00;47.30;;;;;;4983409;28;87500;-85
2023/06/15 12:30:42;;;;;;;9.40;2.90;;;25.00;47.20;;;;;;4980754;28;87328;-84
2023/06/15 12:33:24;;;;;;;7.88;2.88;;;25.00;47.20;;;;;;4980079;28;88155;-84
2023/06/15 12:35:51;;;;;;;9.65;3.20;;;25.00;47.30;;;;;;4982291;28;87282;-85
2023/06/15 12:38:17;;;;;;;6.03;2.65;;;24.90;47.10;;;;;;4983839;28;90225;-85
2023/06/15 12:40:43;;;;;;;4.25;2.80;;;25.00;47.20;;;;;;4983085;28;87696;-84
2023/06/15 12:43:09;;;;;;;5.88;2.70;;;25.00;47.20;;;;;;4982901;28;87526;-85
2023/06/15 12:45:35;;;;;;;7.80;3.60;;;25.00;47.20;;;;;;4980773;28;88054;-85